This is the latest recevied weather packets stored in our database for station/object YT6PT-8. If no packets are shown the sender has not sent any weather packets the latest 10 day(s).
| Time | Temp. | Humidity | Pressure | Rain* | Wind** | Luminosity | Snow |
|---|---|---|---|---|---|---|---|
| 1787972443 | 23.33° C | 55% | 1007.8 hPa | 0 mm | 0.45 m/s, 158° | - | - |
| 1787972133 | 23.33° C | 56% | 1007.8 hPa | 0 mm | 0 m/s | - | - |
| 1787971832 | 23.33° C | 56% | 1007.8 hPa | 0 mm | 0 m/s | - | - |
| 1787971532 | 23.33° C | 57% | 1007.6 hPa | 0 mm | 0.45 m/s, 158° | - | - |
| 1787971232 | 23.33° C | 57% | 1007.6 hPa | 0 mm | 0.45 m/s, 158° | - | - |
| 1787970950 | 22.22° C | 59% | 1007.7 hPa | 0 mm | 0.45 m/s, 158° | - | - |
| 1787970651 | 22.22° C | 59% | 1007.7 hPa | 0 mm | 0.45 m/s, 158° | - | - |
| 1787970351 | 21.11° C | 62% | 1007.7 hPa | 0 mm | 1.34 m/s, 180° | - | - |
| 1787970032 | 21.11° C | 62% | 1007.7 hPa | 0 mm | 1.34 m/s, 180° | - | - |
| 1787969752 | 20° C | 69% | 1007.9 hPa | 0 mm | 0.89 m/s, 180° | - | - |
| 1787969432 | 20° C | 69% | 1007.9 hPa | 0 mm | 0.89 m/s, 180° | - | - |
| 1787969148 | 20.56° C | 74% | 1007.5 hPa | 0 mm | 1.79 m/s, 158° | - | - |
| 1787968834 | 20.56° C | 74% | 1007.5 hPa | 0 mm | 1.79 m/s, 158° | - | - |
| 1787968532 | 22.22° C | 69% | 1007.5 hPa | 0 mm | 1.34 m/s, 158° | - | - |
| 1787968232 | 22.22° C | 69% | 1007.5 hPa | 0 mm | 1.34 m/s, 158° | - | - |
| 1787967931 | 23.33° C | 61% | 1008 hPa | 0 mm | 0.89 m/s, 158° | - | - |
| 1787967631 | 23.33° C | 61% | 1008 hPa | 0 mm | 0.89 m/s, 158° | - | - |
| 1787967350 | 23.89° C | 59% | 1008.2 hPa | 0 mm | 0.45 m/s, 158° | - | - |
| 1787967052 | 23.89° C | 59% | 1008.2 hPa | 0 mm | 0.45 m/s, 158° | - | - |
| 1787966732 | 24.44° C | 58% | 1008.2 hPa | 0 mm | 0.45 m/s, 158° | - | - |
| 1787966433 | 24.44° C | 58% | 1008.2 hPa | 0 mm | 0.45 m/s, 158° | - | - |
| 1787966150 | 24.44° C | 57% | 1008.1 hPa | 0 mm | 1.79 m/s, 158° | - | - |
| 1787965852 | 24.44° C | 57% | 1008.1 hPa | 0 mm | 1.79 m/s, 158° | - | - |
| 1787965549 | 24.44° C | 56% | 1008.3 hPa | 0 mm | 0.89 m/s, 158° | - | - |
| 1787965238 | 24.44° C | 56% | 1008.3 hPa | 0 mm | 0.89 m/s, 158° | - | - |
* Rain latest hour (hover to see other rain measurements)
** Current wind speed in m/s (hover to see current wind gust speed)